Time;durP1;ratioP1;P1;durP2;ratioP2;P2;SDS_P1;SDS_P2;PMS_P1;PMS_P2;Temp;Humidity;BMP_temperature;BMP_pressure;BME280_temperature;BME280_humidity;BME280_pressure;Samples;Min_cycle;Max_cycle;Signal;HPM_P1;HPM_P2
2021/09/21 00:00:59;;;;;;;10.10;7.30;;;23.20;45.90;;;;;;4999423;28;21212;-47
2021/09/21 00:03:25;;;;;;;10.13;7.80;;;23.10;45.90;;;;;;5006457;28;20228;-46
2021/09/21 00:05:50;;;;;;;6.90;6.27;;;23.00;46.30;;;;;;5007186;28;20236;-51
2021/09/21 00:08:16;;;;;;;7.10;6.40;;;22.90;46.50;;;;;;5007334;28;20772;-51
2021/09/21 00:10:41;;;;;;;12.40;7.20;;;22.80;46.90;;;;;;5005800;28;20952;-46
2021/09/21 00:13:07;;;;;;;7.17;6.47;;;22.80;46.90;;;;;;5003684;28;20190;-47
2021/09/21 00:15:33;;;;;;;7.83;7.13;;;22.70;46.70;;;;;;5002118;28;20242;-48
2021/09/21 00:17:58;;;;;;;8.27;6.93;;;22.70;46.70;;;;;;5003390;28;20609;-50
2021/09/21 00:20:24;;;;;;;7.57;6.67;;;22.70;46.50;;;;;;5010671;28;20194;-47
2021/09/21 00:22:50;;;;;;;8.00;7.30;;;22.60;47.00;;;;;;5011081;28;20244;-48
2021/09/21 00:25:16;;;;;;;7.50;6.90;;;22.60;47.40;;;;;;5011102;28;20563;-47
2021/09/21 00:27:43;;;;;;;7.40;6.70;;;22.60;47.40;;;;;;5006709;28;20620;-51
2021/09/21 00:30:10;;;;;;;7.10;6.50;;;22.60;47.60;;;;;;5004321;28;20500;-47
2021/09/21 00:32:35;;;;;;;6.80;6.20;;;22.50;47.70;;;;;;5010569;28;20540;-52
2021/09/21 00:35:01;;;;;;;6.97;6.23;;;22.50;47.70;;;;;;5004473;28;20536;-50
2021/09/21 00:37:26;;;;;;;7.87;7.07;;;22.50;47.60;;;;;;5008057;28;20568;-47
2021/09/21 00:39:53;;;;;;;7.17;6.60;;;22.40;47.50;;;;;;5003503;28;20206;-49
2021/09/21 00:42:28;;;;;;;7.97;7.27;;;22.40;47.40;;;;;;5002836;28;20316;-47
2021/09/21 00:45:03;;;;;;;7.30;6.70;;;22.40;48.00;;;;;;5007374;28;22410;-51
2021/09/21 00:47:28;;;;;;;7.80;7.20;;;22.30;47.80;;;;;;5006235;28;20459;-46
2021/09/21 00:49:55;;;;;;;7.27;6.67;;;22.30;48.70;;;;;;5003532;28;20433;-48
2021/09/21 00:52:21;;;;;;;7.97;7.20;;;22.30;48.70;;;;;;5004777;28;20316;-47
2021/09/21 00:54:47;;;;;;;6.67;6.07;;;22.30;48.60;;;;;;4998971;28;20484;-49
2021/09/21 00:57:13;;;;;;;7.13;6.47;;;22.30;48.30;;;;;;5004637;28;20451;-46
2021/09/21 00:59:39;;;;;;;9.00;7.20;;;22.20;48.40;;;;;;5001076;28;20449;-51
2021/09/21 01:02:05;;;;;;;7.33;6.73;;;22.10;49.00;;;;;;5003671;28;20476;-46
2021/09/21 01:04:31;;;;;;;7.27;6.57;;;22.10;48.90;;;;;;5001256;28;20445;-49
2021/09/21 01:06:58;;;;;;;10.93;8.17;;;22.10;49.00;;;;;;5003021;28;20213;-48
2021/09/21 01:09:27;;;;;;;7.50;6.90;;;22.10;49.40;;;;;;5005829;28;20503;-46
2021/09/21 01:11:55;;;;;;;9.00;7.60;;;22.10;49.00;;;;;;4999068;28;20194;-47
2021/09/21 01:14:21;;;;;;;7.97;7.17;;;22.00;48.70;;;;;;4998343;28;20452;-47
2021/09/21 01:16:48;;;;;;;7.80;7.07;;;22.00;48.90;;;;;;5005571;28;20456;-46
2021/09/21 01:19:15;;;;;;;7.57;6.97;;;21.90;50.10;;;;;;5005299;28;20445;-47
2021/09/21 01:21:42;;;;;;;10.70;6.30;;;22.00;50.40;;;;;;5006316;28;20441;-47
2021/09/21 01:24:08;;;;;;;7.60;6.90;;;21.90;50.80;;;;;;5004631;28;20484;-47
2021/09/21 01:26:34;;;;;;;6.80;6.20;;;22.00;50.90;;;;;;5004364;28;20441;-47
2021/09/21 01:29:00;;;;;;;7.23;6.53;;;22.00;50.40;;;;;;5004938;28;20432;-48
2021/09/21 01:31:25;;;;;;;11.13;7.30;;;22.00;50.20;;;;;;5009013;28;20662;-48
2021/09/21 01:33:52;;;;;;;7.87;7.23;;;22.00;49.30;;;;;;5002143;28;20205;-47
2021/09/21 01:36:21;;;;;;;10.23;7.57;;;22.00;49.30;;;;;;5003155;28;20195;-47
2021/09/21 01:38:47;;;;;;;7.60;7.00;;;22.00;48.70;;;;;;5005267;28;20452;-46
2021/09/21 01:41:13;;;;;;;7.23;6.53;;;21.90;48.70;;;;;;5003751;28;20459;-47
2021/09/21 01:43:42;;;;;;;7.13;6.53;;;21.90;49.60;;;;;;5000960;28;20494;-48
2021/09/21 01:46:08;;;;;;;8.20;7.50;;;21.90;50.40;;;;;;5003110;28;20929;-47
2021/09/21 01:48:34;;;;;;;7.67;7.07;;;21.90;50.80;;;;;;5002794;28;20449;-46
2021/09/21 01:51:11;;;;;;;7.73;7.03;;;21.90;50.90;;;;;;5004313;28;20437;-46
2021/09/21 01:58:53;;;;;;;8.13;7.33;;;21.90;49.70;;;;;;5001005;28;20585;-51
2021/09/21 02:01:23;;;;;;;7.60;7.00;;;21.90;49.90;;;;;;5002074;28;21036;-48
2021/09/21 02:03:52;;;;;;;6.50;5.80;;;21.90;50.20;;;;;;4999091;28;20258;-46
2021/09/21 02:06:18;;;;;;;8.20;7.50;;;21.90;50.70;;;;;;4999666;28;20900;-46
2021/09/21 02:08:44;;;;;;;7.87;7.27;;;21.90;51.20;;;;;;4999103;28;20464;-46
2021/09/21 02:11:09;;;;;;;6.37;5.87;;;21.90;50.50;;;;;;5004613;28;20445;-47
2021/09/21 02:13:35;;;;;;;7.60;6.90;;;21.90;50.70;;;;;;5004995;28;20268;-48
2021/09/21 02:16:02;;;;;;;9.37;7.27;;;22.00;50.70;;;;;;4999448;28;20202;-47
2021/09/21 02:18:28;;;;;;;6.80;6.30;;;21.90;49.80;;;;;;5002681;28;20204;-47
2021/09/21 02:20:54;;;;;;;6.57;5.97;;;21.80;50.00;;;;;;4999818;28;20442;-47
2021/09/21 02:23:19;;;;;;;7.50;6.90;;;21.80;49.90;;;;;;5001566;28;20948;-46
2021/09/21 02:25:45;;;;;;;8.00;7.03;;;21.80;49.80;;;;;;4999965;28;20198;-48
2021/09/21 02:28:11;;;;;;;7.47;6.77;;;21.90;49.80;;;;;;5004510;28;20209;-48
2021/09/21 02:30:37;;;;;;;6.57;5.97;;;21.90;49.70;;;;;;5002632;28;20205;-48
2021/09/21 02:33:03;;;;;;;6.90;6.30;;;21.90;49.90;;;;;;5008477;28;20620;-46
2021/09/21 02:35:29;;;;;;;7.00;6.30;;;21.90;50.20;;;;;;5006376;28;20605;-46
2021/09/21 02:37:55;;;;;;;8.43;7.07;;;21.90;50.10;;;;;;5008268;28;20842;-47
2021/09/21 02:40:22;;;;;;;7.63;6.93;;;21.90;50.20;;;;;;5003825;28;20499;-47
2021/09/21 02:42:48;;;;;;;6.70;6.10;;;21.80;49.80;;;;;;5004788;28;20304;-53
2021/09/21 02:45:14;;;;;;;7.67;7.07;;;21.80;50.00;;;;;;5000188;28;20488;-47
2021/09/21 02:47:40;;;;;;;7.30;6.60;;;21.80;49.50;;;;;;5006910;28;20444;-45
2021/09/21 02:50:07;;;;;;;7.90;7.20;;;21.80;49.40;;;;;;5008327;28;20194;-47
2021/09/21 02:52:33;;;;;;;7.07;6.40;;;21.80;49.60;;;;;;5013515;28;20204;-46
2021/09/21 02:54:58;;;;;;;7.90;6.63;;;21.70;49.70;;;;;;5010650;28;20453;-48
2021/09/21 02:57:24;;;;;;;7.23;6.60;;;21.80;50.10;;;;;;5008399;28;20228;-44
2021/09/21 02:59:50;;;;;;;7.93;7.20;;;21.80;50.20;;;;;;5006770;28;20280;-44
2021/09/21 03:02:16;;;;;;;7.70;7.00;;;21.80;50.40;;;;;;5003923;28;20236;-48
2021/09/21 03:04:51;;;;;;;7.90;7.07;;;21.80;50.30;;;;;;5006162;28;20202;-44
2021/09/21 03:07:26;;;;;;;7.63;7.00;;;21.80;50.10;;;;;;5006916;28;21034;-48
2021/09/21 03:10:04;;;;;;;8.10;7.40;;;21.80;50.20;;;;;;5004257;28;20452;-46
2021/09/21 03:12:55;;;;;;;8.00;7.30;;;21.70;49.80;;;;;;5000028;28;20851;-48
2021/09/21 03:18:01;;;;;;;8.30;7.50;;;21.70;49.80;;;;;;5004259;28;21104;-46
2021/09/21 03:20:27;;;;;;;8.00;7.30;;;21.60;49.80;;;;;;5007302;28;20502;-50
2021/09/21 03:22:53;;;;;;;8.93;7.23;;;21.50;50.70;;;;;;5008074;28;20496;-50
2021/09/21 03:25:19;;;;;;;7.83;7.23;;;21.40;51.20;;;;;;5008708;28;20449;-46
2021/09/21 03:27:45;;;;;;;7.00;6.43;;;21.40;51.50;;;;;;5005252;28;20208;-47
2021/09/21 03:30:12;;;;;;;8.30;7.50;;;21.40;51.70;;;;;;5005130;28;20190;-46
2021/09/21 03:32:39;;;;;;;8.40;7.70;;;21.50;51.60;;;;;;5008628;28;20488;-49
2021/09/21 03:35:06;;;;;;;7.37;6.67;;;21.50;51.20;;;;;;5006102;28;20947;-48
2021/09/21 03:37:32;;;;;;;7.30;6.60;;;21.50;51.50;;;;;;5007364;28;20800;-51
2021/09/21 03:39:58;;;;;;;7.47;6.60;;;21.50;52.00;;;;;;5006421;28;20483;-50
2021/09/21 03:42:23;;;;;;;8.37;7.57;;;21.60;52.10;;;;;;5004338;28;20584;-45
2021/09/21 03:44:49;;;;;;;7.30;6.60;;;21.60;52.00;;;;;;5009094;28;20187;-49
2021/09/21 03:47:15;;;;;;;7.37;6.67;;;21.60;52.00;;;;;;5009431;28;20568;-46
2021/09/21 03:49:41;;;;;;;7.80;7.10;;;21.70;52.30;;;;;;5004958;28;20210;-49
2021/09/21 03:52:07;;;;;;;7.90;7.20;;;21.70;51.70;;;;;;5007861;28;20194;-50
2021/09/21 03:54:32;;;;;;;6.70;6.20;;;21.70;51.50;;;;;;5003344;28;20483;-48
2021/09/21 03:56:58;;;;;;;6.73;6.23;;;21.70;51.60;;;;;;5007836;28;20186;-50
2021/09/21 03:59:25;;;;;;;7.07;6.47;;;21.70;51.40;;;;;;5002464;28;20241;-51
2021/09/21 04:01:51;;;;;;;7.80;7.10;;;21.70;51.80;;;;;;5003698;28;20835;-50
2021/09/21 04:04:16;;;;;;;7.93;7.23;;;21.70;51.90;;;;;;5003102;28;20499;-46
2021/09/21 04:06:42;;;;;;;6.47;5.87;;;21.70;52.00;;;;;;5003963;28;20456;-45
2021/09/21 04:09:08;;;;;;;8.00;7.23;;;21.70;51.70;;;;;;5001030;28;20272;-50
2021/09/21 04:11:34;;;;;;;8.67;7.87;;;21.70;51.60;;;;;;5006041;28;20212;-50
2021/09/21 04:14:00;;;;;;;8.60;7.90;;;21.70;51.50;;;;;;5006379;28;20292;-44
2021/09/21 04:16:28;;;;;;;8.27;7.43;;;21.70;50.90;;;;;;5004133;28;20199;-46
2021/09/21 04:18:55;;;;;;;7.80;7.20;;;21.60;50.80;;;;;;5001272;28;20444;-46
2021/09/21 04:21:20;;;;;;;7.70;7.03;;;21.60;50.70;;;;;;5004341;28;20447;-49
2021/09/21 04:23:46;;;;;;;8.80;8.00;;;21.60;51.10;;;;;;5007451;28;20492;-47
2021/09/21 04:26:12;;;;;;;7.40;6.80;;;21.60;51.10;;;;;;5006866;28;20233;-45
2021/09/21 04:28:39;;;;;;;7.47;6.77;;;21.60;50.40;;;;;;5000526;28;20202;-44
2021/09/21 04:31:11;;;;;;;8.00;7.17;;;21.50;50.20;;;;;;5005669;28;20202;-49
2021/09/21 04:33:39;;;;;;;7.70;7.00;;;21.50;49.90;;;;;;5003497;28;20449;-46
2021/09/21 04:36:07;;;;;;;8.70;7.87;;;21.50;50.20;;;;;;5001349;28;20441;-45
2021/09/21 04:38:33;;;;;;;7.17;6.47;;;21.40;50.40;;;;;;5002957;28;20444;-46
2021/09/21 04:40:58;;;;;;;7.87;7.10;;;21.40;50.60;;;;;;5004096;28;20441;-46
2021/09/21 04:43:24;;;;;;;9.27;8.37;;;21.40;50.30;;;;;;5003099;28;20499;-47
2021/09/21 04:45:50;;;;;;;7.43;6.83;;;21.40;50.80;;;;;;5004991;28;20388;-47
2021/09/21 04:48:15;;;;;;;8.33;7.53;;;21.40;50.80;;;;;;4999587;28;20204;-48
2021/09/21 04:50:41;;;;;;;8.03;7.33;;;21.40;50.80;;;;;;5002946;28;20213;-46
2021/09/21 04:53:07;;;;;;;8.03;7.23;;;21.40;50.60;;;;;;5002663;28;20316;-44
2021/09/21 04:55:32;;;;;;;7.83;7.13;;;21.40;51.40;;;;;;5002754;28;20209;-47
2021/09/21 04:57:58;;;;;;;7.30;6.60;;;21.40;51.10;;;;;;5002888;28;22281;-45
2021/09/21 05:00:24;;;;;;;7.53;6.93;;;21.40;50.90;;;;;;5001470;28;20524;-46
2021/09/21 05:02:49;;;;;;;7.27;6.63;;;21.40;51.20;;;;;;5000168;28;20233;-46
2021/09/21 05:05:15;;;;;;;10.40;7.00;;;21.40;51.00;;;;;;5003083;28;20225;-45
2021/09/21 05:07:41;;;;;;;7.47;6.77;;;21.40;51.50;;;;;;5004422;28;20201;-46
2021/09/21 05:10:07;;;;;;;8.50;7.60;;;21.40;51.70;;;;;;5005607;28;20473;-45
2021/09/21 05:12:33;;;;;;;7.07;6.37;;;21.40;51.30;;;;;;5005097;28;20202;-49
2021/09/21 05:14:58;;;;;;;7.60;6.90;;;21.40;51.30;;;;;;5003621;28;20951;-44
2021/09/21 05:17:24;;;;;;;7.90;7.20;;;21.40;51.20;;;;;;5007517;28;20194;-45
2021/09/21 05:19:49;;;;;;;7.00;6.30;;;21.40;51.20;;;;;;5005617;28;20373;-49
2021/09/21 05:22:15;;;;;;;8.17;7.47;;;21.40;51.00;;;;;;5001812;28;20221;-47
2021/09/21 05:24:41;;;;;;;7.67;7.03;;;21.40;50.70;;;;;;5007757;28;20193;-45
2021/09/21 05:27:06;;;;;;;19.60;6.80;;;21.50;50.80;;;;;;5008412;28;20193;-49
2021/09/21 05:29:32;;;;;;;7.43;6.50;;;21.30;52.80;;;;;;5005236;28;20205;-45
2021/09/21 05:31:59;;;;;;;6.90;6.20;;;21.20;52.90;;;;;;5009090;28;20194;-47
2021/09/21 05:34:25;;;;;;;7.57;6.87;;;21.30;51.60;;;;;;5007311;28;20276;-45
2021/09/21 05:36:50;;;;;;;7.53;6.83;;;21.40;50.90;;;;;;5006255;28;20564;-46
2021/09/21 05:39:16;;;;;;;8.43;7.63;;;21.50;50.60;;;;;;5004170;28;20974;-45
2021/09/21 05:41:43;;;;;;;9.00;8.20;;;21.50;50.40;;;;;;5003719;28;20875;-45
2021/09/21 05:44:09;;;;;;;7.93;7.20;;;21.50;50.10;;;;;;5004215;28;20237;-48
2021/09/21 05:46:34;;;;;;;8.83;7.97;;;21.40;49.90;;;;;;5005068;28;20957;-48
2021/09/21 05:49:00;;;;;;;8.33;7.70;;;21.40;49.90;;;;;;5001456;28;20224;-49
2021/09/21 05:51:30;;;;;;;7.97;7.27;;;21.40;49.90;;;;;;5005402;28;20198;-47
2021/09/21 05:53:56;;;;;;;9.07;7.87;;;21.40;49.80;;;;;;5001013;28;20222;-48
2021/09/21 05:56:22;;;;;;;9.40;8.50;;;21.40;49.60;;;;;;5002974;28;20444;-45
2021/09/21 05:58:48;;;;;;;8.47;7.77;;;21.40;49.60;;;;;;5009242;28;20960;-44
2021/09/21 06:01:14;;;;;;;9.27;8.10;;;21.40;49.50;;;;;;5010645;28;20544;-45
2021/09/21 06:03:40;;;;;;;8.53;7.73;;;21.40;49.40;;;;;;5010507;28;20249;-46
2021/09/21 06:06:06;;;;;;;7.70;7.00;;;21.40;49.30;;;;;;4999976;28;20460;-48
2021/09/21 06:08:31;;;;;;;8.10;7.40;;;21.40;49.20;;;;;;5010233;28;20201;-45
2021/09/21 06:10:58;;;;;;;9.67;8.30;;;21.40;49.00;;;;;;5011514;28;20201;-47
2021/09/21 06:13:23;;;;;;;7.60;6.93;;;21.50;49.00;;;;;;5009650;28;20198;-45
2021/09/21 06:15:49;;;;;;;8.60;7.80;;;21.50;49.00;;;;;;5010792;28;20437;-45
2021/09/21 06:18:16;;;;;;;8.30;7.60;;;21.50;48.90;;;;;;5010264;28;20193;-46
2021/09/21 06:20:43;;;;;;;7.50;6.93;;;21.50;48.90;;;;;;5007645;28;20941;-48
2021/09/21 06:23:09;;;;;;;8.13;7.43;;;21.50;48.90;;;;;;5006527;28;20484;-47
2021/09/21 06:25:35;;;;;;;8.27;7.50;;;21.60;48.80;;;;;;5009009;28;20521;-45
2021/09/21 06:28:01;;;;;;;7.83;7.00;;;21.60;48.80;;;;;;5009444;28;20497;-46
2021/09/21 06:30:27;;;;;;;7.70;6.90;;;21.60;49.00;;;;;;5010829;28;20474;-45
2021/09/21 06:32:53;;;;;;;7.30;6.70;;;21.70;49.10;;;;;;5009468;28;20441;-46
2021/09/21 06:35:19;;;;;;;7.93;7.20;;;21.70;49.20;;;;;;5014494;28;20433;-45
2021/09/21 06:37:45;;;;;;;8.73;7.53;;;21.70;49.30;;;;;;5015401;28;20300;-46
2021/09/21 06:40:11;;;;;;;8.80;7.53;;;21.70;49.30;;;;;;5014166;28;20277;-48
2021/09/21 06:42:41;;;;;;;8.50;7.20;;;21.70;49.30;;;;;;5004127;28;20349;-45
2021/09/21 06:45:07;;;;;;;10.57;7.67;;;21.80;49.40;;;;;;5008328;28;20436;-45
2021/09/21 06:47:33;;;;;;;7.63;6.97;;;21.80;49.50;;;;;;5014838;28;20429;-45
2021/09/21 06:49:59;;;;;;;8.10;7.37;;;21.80;49.60;;;;;;5013430;28;20982;-45
2021/09/21 06:52:24;;;;;;;8.00;7.30;;;21.80;49.70;;;;;;5002793;28;20585;-44
2021/09/21 06:54:50;;;;;;;8.40;7.03;;;21.70;49.70;;;;;;4993759;28;20206;-45
2021/09/21 06:57:16;;;;;;;8.00;7.40;;;21.70;49.60;;;;;;5006159;28;20297;-45
2021/09/21 06:59:42;;;;;;;9.67;8.70;;;21.70;49.40;;;;;;5014349;28;20244;-47
2021/09/21 07:02:08;;;;;;;9.17;8.37;;;21.60;49.60;;;;;;5014971;28;20566;-46
2021/09/21 07:04:33;;;;;;;8.80;7.97;;;21.60;49.60;;;;;;5014487;28;20429;-46
2021/09/21 07:06:59;;;;;;;8.50;7.70;;;21.60;49.50;;;;;;5014091;28;20221;-45
2021/09/21 07:09:25;;;;;;;9.37;8.57;;;21.70;49.40;;;;;;5008880;28;20221;-46
2021/09/21 07:11:50;;;;;;;7.90;7.20;;;21.80;49.20;;;;;;4999846;28;20225;-46
2021/09/21 07:14:17;;;;;;;9.30;8.47;;;22.00;49.00;;;;;;5013982;28;20197;-46
2021/09/21 07:16:43;;;;;;;8.03;7.33;;;22.20;48.70;;;;;;5002823;28;20230;-45
2021/09/21 07:19:09;;;;;;;14.00;7.80;;;22.30;47.60;;;;;;5011662;28;20456;-47
2021/09/21 07:21:35;;;;;;;8.60;7.57;;;22.50;47.00;;;;;;5010773;28;20216;-45
2021/09/21 07:24:01;;;;;;;9.40;8.50;;;22.60;46.60;;;;;;5008705;28;20500;-45
2021/09/21 07:26:26;;;;;;;8.67;7.87;;;22.80;46.20;;;;;;5013017;28;20213;-45
2021/09/21 07:28:52;;;;;;;7.27;6.57;;;23.00;45.90;;;;;;5012777;28;20198;-46
2021/09/21 07:31:17;;;;;;;8.73;7.93;;;23.10;45.00;;;;;;5013662;28;20210;-46
2021/09/21 07:33:44;;;;;;;8.40;7.57;;;23.20;45.00;;;;;;5008154;28;20222;-47
2021/09/21 07:36:10;;;;;;;8.33;7.63;;;23.20;44.60;;;;;;5012571;28;20297;-48
2021/09/21 07:38:36;;;;;;;8.33;7.63;;;23.20;44.10;;;;;;5006980;28;20443;-46
2021/09/21 07:41:02;;;;;;;7.93;7.30;;;23.30;43.70;;;;;;5011057;28;20531;-46
2021/09/21 07:43:27;;;;;;;8.30;7.50;;;23.30;43.20;;;;;;5010939;28;20234;-47
2021/09/21 07:45:53;;;;;;;7.87;7.00;;;23.50;43.20;;;;;;5013327;28;20432;-48
2021/09/21 07:48:20;;;;;;;8.63;7.37;;;23.50;43.20;;;;;;5012085;28;20194;-47
2021/09/21 07:50:47;;;;;;;7.80;7.10;;;23.70;42.40;;;;;;5013654;28;20444;-47
2021/09/21 07:53:13;;;;;;;9.63;7.57;;;23.70;41.70;;;;;;4995407;28;20481;-46
2021/09/21 07:55:39;;;;;;;7.00;6.40;;;23.80;41.60;;;;;;4996970;28;20453;-46
2021/09/21 07:58:05;;;;;;;8.77;7.73;;;23.90;41.90;;;;;;4995334;28;20466;-48
2021/09/21 08:00:30;;;;;;;7.10;6.50;;;23.90;41.40;;;;;;5005392;28;20584;-46
2021/09/21 08:02:56;;;;;;;12.30;7.20;;;24.00;41.50;;;;;;4996139;28;20253;-48
2021/09/21 08:05:22;;;;;;;8.07;6.30;;;24.10;41.50;;;;;;5002573;28;20199;-46
2021/09/21 08:07:48;;;;;;;7.70;7.10;;;24.00;39.80;;;;;;5004582;28;20190;-48
2021/09/21 08:10:14;;;;;;;7.07;6.37;;;23.90;39.10;;;;;;4994075;28;20229;-47
2021/09/21 08:12:40;;;;;;;7.47;6.83;;;23.60;37.60;;;;;;4994098;28;20462;-46
2021/09/21 08:15:07;;;;;;;6.97;6.37;;;23.40;38.90;;;;;;5006476;28;20705;-49
2021/09/21 08:17:33;;;;;;;6.40;5.80;;;23.40;40.00;;;;;;4995807;28;20825;-47
2021/09/21 08:19:59;;;;;;;7.33;6.73;;;23.60;40.60;;;;;;4993642;28;20433;-46
2021/09/21 08:22:26;;;;;;;6.30;5.80;;;23.20;38.40;;;;;;4993928;28;20297;-46
2021/09/21 08:24:52;;;;;;;8.33;6.93;;;23.30;38.50;;;;;;5004092;28;20197;-46
2021/09/21 08:27:18;;;;;;;5.80;5.40;;;23.30;39.00;;;;;;5013164;28;20433;-46
2021/09/21 08:29:44;;;;;;;6.43;5.93;;;23.40;38.60;;;;;;5012578;28;20507;-48
2021/09/21 08:32:10;;;;;;;5.63;5.23;;;23.40;39.00;;;;;;5013338;28;20818;-47
2021/09/21 08:34:36;;;;;;;6.63;6.00;;;23.30;38.10;;;;;;5012524;28;20194;-47
2021/09/21 08:37:02;;;;;;;5.77;5.27;;;23.30;37.00;;;;;;5012166;28;20285;-47
2021/09/21 08:39:28;;;;;;;5.43;4.93;;;23.20;37.50;;;;;;5002394;28;20197;-47
2021/09/21 08:41:54;;;;;;;6.53;6.03;;;23.10;38.40;;;;;;4991992;28;20454;-46
2021/09/21 08:44:20;;;;;;;7.50;6.57;;;23.10;38.60;;;;;;5002393;28;20488;-46
2021/09/21 08:46:46;;;;;;;8.60;6.27;;;23.20;38.40;;;;;;5011645;28;20193;-46
2021/09/21 08:49:13;;;;;;;6.13;5.60;;;23.20;37.30;;;;;;5012320;28;20217;-47
2021/09/21 08:51:39;;;;;;;6.10;5.50;;;23.20;37.90;;;;;;5012954;28;20429;-46
2021/09/21 08:54:05;;;;;;;6.80;5.93;;;23.30;39.00;;;;;;5012441;28;20431;-46
2021/09/21 08:56:31;;;;;;;6.10;5.57;;;23.50;38.60;;;;;;5007892;28;20194;-46
2021/09/21 08:59:09;;;;;;;6.20;5.70;;;23.60;38.20;;;;;;4995929;28;20468;-50
2021/09/21 09:01:49;;;;;;;5.67;5.20;;;23.60;37.30;;;;;;5011260;28;20201;-47
2021/09/21 09:04:17;;;;;;;5.80;5.30;;;23.70;36.70;;;;;;5012272;28;20491;-48
2021/09/21 09:06:50;;;;;;;5.27;4.87;;;23.80;37.80;;;;;;5012332;28;20451;-47
2021/09/21 09:09:17;;;;;;;9.70;5.73;;;24.00;38.00;;;;;;4994352;28;20429;-47
2021/09/21 09:11:46;;;;;;;5.60;5.10;;;24.10;35.70;;;;;;5008394;28;20491;-46
2021/09/21 09:14:26;;;;;;;5.67;5.17;;;24.30;35.70;;;;;;4994880;28;20911;-46
2021/09/21 09:17:00;;;;;;;5.43;5.00;;;24.40;36.30;;;;;;5004145;28;20444;-50
2021/09/21 09:19:37;;;;;;;6.00;5.50;;;24.40;36.70;;;;;;5003709;28;20465;-47
2021/09/21 09:22:05;;;;;;;5.90;5.30;;;24.40;35.60;;;;;;5008287;28;20468;-44
2021/09/21 09:24:31;;;;;;;5.10;4.60;;;24.40;35.80;;;;;;5009514;28;20851;-45
2021/09/21 09:26:57;;;;;;;5.80;5.30;;;24.40;35.00;;;;;;5011362;28;20460;-45
2021/09/21 09:29:22;;;;;;;6.53;6.03;;;24.30;34.50;;;;;;5010684;28;20202;-47
2021/09/21 09:31:48;;;;;;;5.40;5.00;;;24.50;35.40;;;;;;5011531;28;20669;-44
2021/09/21 09:34:27;;;;;;;6.70;6.20;;;24.40;36.70;;;;;;5010759;28;20198;-47
2021/09/21 09:36:58;;;;;;;6.77;6.27;;;24.30;35.90;;;;;;5010475;28;20192;-46
2021/09/21 09:39:29;;;;;;;5.93;5.43;;;24.20;35.10;;;;;;5010002;28;20441;-48
2021/09/21 09:41:57;;;;;;;5.93;5.53;;;23.80;35.80;;;;;;5001779;28;20484;-50
2021/09/21 09:44:25;;;;;;;6.63;6.03;;;23.80;36.70;;;;;;5008822;28;20554;-45
2021/09/21 09:47:00;;;;;;;6.63;6.10;;;24.00;35.90;;;;;;5002005;28;20830;-44
2021/09/21 09:49:27;;;;;;;6.40;5.90;;;24.20;35.90;;;;;;5006344;28;20523;-44
2021/09/21 09:51:54;;;;;;;7.00;6.40;;;24.30;36.60;;;;;;5009951;28;20516;-49
2021/09/21 09:54:20;;;;;;;6.73;6.20;;;24.40;38.00;;;;;;5009673;28;20483;-45
2021/09/21 09:56:46;;;;;;;7.37;6.77;;;24.60;37.50;;;;;;5003701;28;20446;-47
2021/09/21 09:59:16;;;;;;;7.53;6.83;;;24.80;36.40;;;;;;5001862;28;20559;-48
2021/09/21 10:01:43;;;;;;;7.33;6.63;;;24.90;36.50;;;;;;5010408;28;20433;-44
2021/09/21 10:04:11;;;;;;;8.23;7.43;;;25.10;35.90;;;;;;5008134;28;20503;-48
2021/09/21 10:06:38;;;;;;;6.97;6.37;;;25.20;34.60;;;;;;5007630;28;20453;-47
2021/09/21 10:09:04;;;;;;;7.60;7.00;;;25.10;34.50;;;;;;5003643;28;20444;-49
2021/09/21 10:11:30;;;;;;;6.00;5.50;;;25.20;34.40;;;;;;5009967;28;20802;-44
2021/09/21 10:13:58;;;;;;;7.53;6.90;;;25.30;35.30;;;;;;5010222;28;20656;-46
2021/09/21 10:16:24;;;;;;;6.63;6.13;;;25.40;34.20;;;;;;5010168;28;20788;-46
2021/09/21 10:18:54;;;;;;;6.80;6.30;;;25.20;34.40;;;;;;5009268;28;20540;-45
2021/09/21 10:21:35;;;;;;;6.17;5.67;;;25.10;35.00;;;;;;5009767;28;20839;-46
2021/09/21 10:24:04;;;;;;;7.00;6.40;;;25.40;34.70;;;;;;5008341;28;20881;-45
2021/09/21 10:26:32;;;;;;;8.00;7.10;;;25.40;36.00;;;;;;5010375;28;20845;-47
2021/09/21 10:28:58;;;;;;;6.87;6.37;;;25.60;35.90;;;;;;5009188;28;20503;-45
2021/09/21 10:31:24;;;;;;;9.30;6.63;;;25.90;35.10;;;;;;5009157;28;20472;-48
2021/09/21 10:33:51;;;;;;;6.47;5.90;;;25.90;34.00;;;;;;5005645;28;21372;-46
2021/09/21 10:36:19;;;;;;;9.20;6.50;;;26.10;34.00;;;;;;5009557;28;20929;-48
2021/09/21 10:38:55;;;;;;;10.60;5.80;;;26.00;37.90;;;;;;5007794;28;20469;-45
2021/09/21 10:41:22;;;;;;;6.17;5.63;;;25.90;38.10;;;;;;5004555;28;20437;-45
2021/09/21 10:44:03;;;;;;;6.93;6.40;;;26.10;37.90;;;;;;5008684;28;20484;-50
2021/09/21 10:46:40;;;;;;;6.27;5.67;;;26.30;35.90;;;;;;5008563;28;20444;-45
2021/09/21 10:49:06;;;;;;;5.73;5.20;;;26.40;35.60;;;;;;4995413;28;20644;-45
2021/09/21 10:51:31;;;;;;;5.67;5.23;;;26.50;34.80;;;;;;5007600;28;20966;-45
2021/09/21 10:54:03;;;;;;;5.60;4.50;;;26.70;36.40;;;;;;5005314;28;20559;-45
2021/09/21 10:56:29;;;;;;;5.67;5.17;;;26.90;36.00;;;;;;5006681;28;20198;-46
2021/09/21 10:58:57;;;;;;;6.13;5.60;;;27.10;35.70;;;;;;5007527;28;20468;-47
2021/09/21 11:01:23;;;;;;;5.77;5.27;;;27.30;34.20;;;;;;5008503;28;20445;-46
2021/09/21 11:03:48;;;;;;;5.20;4.80;;;27.50;33.90;;;;;;5004940;28;20511;-44
2021/09/21 11:06:15;;;;;;;5.30;4.90;;;27.60;33.60;;;;;;5008349;28;20186;-45
2021/09/21 11:08:41;;;;;;;6.00;5.40;;;27.80;35.30;;;;;;5002367;28;20654;-45
2021/09/21 11:11:08;;;;;;;5.13;4.70;;;27.90;34.80;;;;;;5013572;28;20491;-45
2021/09/21 11:13:36;;;;;;;4.53;4.13;;;28.00;34.40;;;;;;5008179;28;20202;-46
2021/09/21 11:16:05;;;;;;;5.13;4.73;;;28.00;34.50;;;;;;5013085;28;20444;-45
2021/09/21 11:18:31;;;;;;;4.50;4.20;;;27.80;35.10;;;;;;5011331;28;20448;-47
2021/09/21 11:21:02;;;;;;;5.40;5.00;;;27.80;34.90;;;;;;4997369;28;20438;-45
2021/09/21 11:23:30;;;;;;;5.47;5.07;;;27.70;34.90;;;;;;5012750;28;20480;-49
2021/09/21 11:25:58;;;;;;;5.40;4.90;;;27.70;34.40;;;;;;5010400;28;20437;-45
2021/09/21 11:28:26;;;;;;;5.00;4.70;;;27.70;34.70;;;;;;5011484;28;20440;-48
2021/09/21 11:30:56;;;;;;;5.77;5.27;;;27.60;35.00;;;;;;5010849;28;21020;-45
2021/09/21 11:33:26;;;;;;;5.10;4.70;;;27.50;35.10;;;;;;5009529;28;20964;-46
2021/09/21 11:35:55;;;;;;;6.13;4.47;;;27.50;34.80;;;;;;5012426;28;20486;-45
2021/09/21 11:38:22;;;;;;;4.27;3.97;;;27.50;35.00;;;;;;5012184;28;20846;-45
2021/09/21 11:40:50;;;;;;;4.67;4.37;;;27.40;34.90;;;;;;5003750;28;20432;-46
2021/09/21 11:43:15;;;;;;;5.07;4.67;;;27.50;35.00;;;;;;5012348;28;20493;-46
2021/09/21 11:45:44;;;;;;;6.90;5.27;;;27.50;34.80;;;;;;5011754;28;20503;-47
2021/09/21 11:48:11;;;;;;;5.40;5.00;;;27.60;33.20;;;;;;5004588;28;21024;-45
2021/09/21 11:50:38;;;;;;;6.13;5.20;;;27.60;33.00;;;;;;5013041;28;20520;-46
2021/09/21 11:53:10;;;;;;;5.77;5.37;;;27.60;32.60;;;;;;5008825;28;20442;-45
2021/09/21 11:55:39;;;;;;;5.93;5.43;;;27.70;32.90;;;;;;5005889;28;20429;-44
2021/09/21 11:58:06;;;;;;;6.07;5.67;;;27.50;32.60;;;;;;5008484;28;20472;-49
2021/09/21 12:00:34;;;;;;;6.33;5.83;;;27.50;33.10;;;;;;5007193;28;20437;-45
2021/09/21 12:03:04;;;;;;;6.13;5.63;;;27.40;33.10;;;;;;5005446;28;20469;-46
2021/09/21 12:05:31;;;;;;;5.50;5.10;;;27.50;32.80;;;;;;5007496;28;20445;-47
2021/09/21 12:07:59;;;;;;;5.77;5.27;;;27.40;33.20;;;;;;5009241;28;20543;-49
2021/09/21 12:10:27;;;;;;;6.50;6.00;;;27.40;32.20;;;;;;5011061;28;20468;-47
2021/09/21 12:13:17;;;;;;;6.20;5.70;;;27.30;32.60;;;;;;5009874;28;20956;-46
2021/09/21 12:15:50;;;;;;;5.70;5.30;;;27.20;32.50;;;;;;5006404;28;20449;-45
2021/09/21 12:18:16;;;;;;;5.67;5.27;;;27.20;33.50;;;;;;5007479;28;20950;-45
2021/09/21 12:20:49;;;;;;;5.80;5.40;;;27.20;34.20;;;;;;5008460;28;20856;-45
2021/09/21 12:23:15;;;;;;;6.20;5.60;;;27.20;32.70;;;;;;5009049;28;20843;-45
2021/09/21 12:25:42;;;;;;;6.13;5.50;;;27.40;33.60;;;;;;5008199;28;20443;-46
2021/09/21 12:28:09;;;;;;;5.80;5.30;;;27.50;32.80;;;;;;5003839;28;20440;-44
2021/09/21 12:30:39;;;;;;;5.77;5.37;;;27.60;33.10;;;;;;5012641;28;20464;-45
2021/09/21 12:33:07;;;;;;;7.30;6.70;;;27.70;32.10;;;;;;4999181;28;20430;-47
2021/09/21 12:35:35;;;;;;;5.30;4.90;;;27.50;33.00;;;;;;5010518;28;20452;-44
2021/09/21 12:38:13;;;;;;;6.63;6.07;;;27.30;33.20;;;;;;5011926;28;20801;-45
2021/09/21 12:40:49;;;;;;;6.03;5.53;;;27.40;32.50;;;;;;5009786;28;20433;-44
2021/09/21 12:43:20;;;;;;;5.57;5.17;;;27.40;33.10;;;;;;5008791;28;20530;-46
2021/09/21 12:45:48;;;;;;;6.00;5.40;;;27.40;33.70;;;;;;5010090;28;20524;-44
2021/09/21 12:48:14;;;;;;;6.10;5.60;;;27.50;31.40;;;;;;5011486;28;20475;-45
2021/09/21 12:50:41;;;;;;;5.60;5.20;;;27.70;31.60;;;;;;5002885;28;20425;-44
2021/09/21 12:53:15;;;;;;;5.43;5.03;;;28.00;32.70;;;;;;5010145;28;20206;-45